Time;durP1;ratioP1;P1;durP2;ratioP2;P2;SDS_P1;SDS_P2;PMS_P1;PMS_P2;Temp;Humidity;BMP_temperature;BMP_pressure;BME280_temperature;BME280_humidity;BME280_pressure;Samples;Min_cycle;Max_cycle;Signal;HPM_P1;HPM_P2
2021/12/05 00:29:45;;;;;;;1.70;1.50;;;4.80;98.20;;;;;;4963515;28;20421;-77
2021/12/05 00:32:21;;;;;;;1.60;1.40;;;4.80;98.20;;;;;;4977079;28;20561;-77
2021/12/05 00:35:16;;;;;;;1.67;1.40;;;4.80;98.20;;;;;;4968766;28;20469;-77
2021/12/05 00:43:41;;;;;;;1.63;1.40;;;4.80;98.20;;;;;;4976406;28;20468;-78
2021/12/05 00:46:26;;;;;;;1.63;1.40;;;4.80;98.20;;;;;;4979345;28;21051;-76
2021/12/05 00:49:11;;;;;;;1.70;1.50;;;4.80;98.20;;;;;;4996293;28;21032;-80
2021/12/05 01:00:30;;;;;;;1.67;1.40;;;4.70;98.20;;;;;;4996326;28;20540;-79
2021/12/05 01:03:25;;;;;;;1.70;1.43;;;4.70;98.20;;;;;;4997742;28;20504;-78
2021/12/05 01:11:44;;;;;;;1.67;1.40;;;4.50;98.20;;;;;;4973789;28;20476;-78
2021/12/05 01:14:23;;;;;;;1.60;1.30;;;4.50;98.20;;;;;;4995886;28;21018;-80
2021/12/05 01:16:51;;;;;;;1.70;1.50;;;4.50;98.20;;;;;;4992536;28;20507;-78
2021/12/05 01:19:22;;;;;;;1.70;1.50;;;4.50;98.20;;;;;;4999666;28;20523;-79
2021/12/05 01:21:53;;;;;;;1.63;1.40;;;4.50;98.20;;;;;;4992391;28;21075;-78
2021/12/05 01:24:30;;;;;;;1.60;1.37;;;4.50;98.20;;;;;;5001153;28;20465;-78
2021/12/05 01:27:03;;;;;;;1.63;1.40;;;4.50;98.20;;;;;;5001866;28;20476;-78
2021/12/05 01:29:40;;;;;;;1.70;1.50;;;4.50;98.20;;;;;;4999711;28;20458;-78
2021/12/05 01:32:16;;;;;;;1.70;1.50;;;4.50;98.20;;;;;;5002728;28;20589;-77
2021/12/05 01:34:55;;;;;;;1.60;1.33;;;4.50;98.20;;;;;;4998663;28;20495;-78
2021/12/05 01:37:32;;;;;;;1.60;1.30;;;4.50;98.20;;;;;;4995305;28;20495;-81
2021/12/05 01:40:18;;;;;;;1.60;1.40;;;4.50;98.20;;;;;;4992537;28;20492;-79
2021/12/05 01:43:32;;;;;;;1.70;1.40;;;4.50;98.20;;;;;;4998426;28;20562;-78
2021/12/05 01:46:37;;;;;;;1.63;1.40;;;4.50;98.20;;;;;;4984700;28;20460;-77
2021/12/05 01:55:33;;;;;;;1.60;1.40;;;4.60;98.20;;;;;;4950798;28;21184;-79
2021/12/05 01:58:26;;;;;;;1.60;1.30;;;4.60;98.20;;;;;;4940268;28;20493;-79
2021/12/05 02:01:24;;;;;;;1.60;1.30;;;4.50;98.20;;;;;;4974586;28;20481;-78
2021/12/05 02:09:49;;;;;;;1.60;1.30;;;4.50;98.20;;;;;;4998767;28;20463;-78
2021/12/05 02:15:24;;;;;;;1.60;1.30;;;4.50;98.20;;;;;;4979495;28;20997;-78
2021/12/05 02:34:48;;;;;;;1.63;1.40;;;4.50;98.20;;;;;;5113353;27;20555;-77
2021/12/05 02:37:33;;;;;;;1.70;1.40;;;4.50;98.20;;;;;;5106872;27;20891;-76
2021/12/05 02:42:49;;;;;;;1.60;1.40;;;4.50;98.20;;;;;;5049318;28;20471;-76
2021/12/05 02:45:17;;;;;;;1.60;1.30;;;4.50;98.20;;;;;;5074756;28;20461;-76
2021/12/05 02:47:51;;;;;;;1.60;1.30;;;4.50;98.20;;;;;;5055654;28;20894;-76
2021/12/05 02:50:23;;;;;;;1.70;1.50;;;4.60;98.20;;;;;;5070025;28;20557;-76
2021/12/05 02:52:52;;;;;;;1.63;1.40;;;4.60;98.20;;;;;;5067109;28;20567;-76
2021/12/05 02:55:25;;;;;;;1.60;1.30;;;4.60;98.20;;;;;;5057832;28;20466;-76
2021/12/05 02:57:57;;;;;;;1.70;1.50;;;4.60;98.20;;;;;;5074724;28;20482;-77
2021/12/05 03:00:35;;;;;;;1.60;1.40;;;4.60;98.20;;;;;;5067469;28;20473;-76
2021/12/05 03:03:03;;;;;;;1.70;1.50;;;4.60;98.20;;;;;;5058835;28;20507;-77
2021/12/05 03:05:32;;;;;;;1.70;1.50;;;4.60;98.20;;;;;;5068180;28;20462;-76
2021/12/05 03:08:01;;;;;;;1.70;1.50;;;4.60;98.20;;;;;;5054831;28;20547;-76
2021/12/05 03:10:29;;;;;;;1.63;1.40;;;4.60;98.20;;;;;;5064922;28;20946;-77
2021/12/05 03:12:56;;;;;;;1.67;1.50;;;4.60;98.20;;;;;;5044856;28;20477;-76
2021/12/05 03:15:23;;;;;;;1.70;1.50;;;4.60;98.20;;;;;;5069612;28;20493;-76
2021/12/05 03:17:50;;;;;;;1.70;1.40;;;4.50;98.20;;;;;;5056452;28;20554;-76
2021/12/05 03:20:18;;;;;;;1.63;1.30;;;4.50;98.20;;;;;;5072921;28;20547;-76
2021/12/05 03:22:47;;;;;;;1.67;1.40;;;4.50;98.20;;;;;;5044547;28;20505;-76
2021/12/05 03:25:15;;;;;;;1.60;1.40;;;4.50;98.20;;;;;;5068336;28;20537;-76
2021/12/05 03:27:43;;;;;;;1.70;1.53;;;4.40;98.20;;;;;;5068742;28;21019;-77
2021/12/05 03:30:12;;;;;;;1.67;1.40;;;4.40;98.20;;;;;;5060865;28;20462;-76
2021/12/05 03:32:40;;;;;;;1.63;1.40;;;4.40;98.20;;;;;;5069826;28;20480;-76
2021/12/05 03:35:09;;;;;;;1.60;1.40;;;4.30;98.20;;;;;;5070471;28;20479;-76
2021/12/05 03:37:36;;;;;;;1.70;1.50;;;4.30;98.20;;;;;;5052444;28;20484;-77
2021/12/05 03:40:06;;;;;;;1.60;1.40;;;4.30;98.20;;;;;;5064005;28;20460;-77
2021/12/05 03:42:34;;;;;;;1.63;1.40;;;4.30;98.20;;;;;;5058304;28;20484;-77
2021/12/05 03:45:01;;;;;;;1.63;1.40;;;4.20;98.20;;;;;;5057735;28;21049;-76
2021/12/05 03:47:30;;;;;;;1.63;1.40;;;4.20;98.20;;;;;;5036966;28;20490;-76
2021/12/05 03:49:57;;;;;;;1.70;1.57;;;4.10;98.20;;;;;;5048681;28;20494;-76
2021/12/05 03:52:24;;;;;;;1.70;1.50;;;4.10;98.20;;;;;;5049825;28;20480;-76
2021/12/05 03:54:51;;;;;;;1.63;1.40;;;4.10;98.20;;;;;;5049701;28;20501;-76
2021/12/05 03:57:20;;;;;;;1.67;1.40;;;4.10;98.20;;;;;;5045289;28;20480;-76
2021/12/05 03:59:47;;;;;;;1.60;1.40;;;4.00;98.20;;;;;;5055718;28;20575;-76
2021/12/05 04:02:14;;;;;;;1.70;1.50;;;4.00;98.20;;;;;;5033201;28;20487;-76
2021/12/05 04:04:41;;;;;;;1.60;1.40;;;4.00;98.20;;;;;;5052566;28;20485;-76
2021/12/05 04:07:08;;;;;;;1.70;1.60;;;4.00;98.20;;;;;;5037040;28;20534;-76
2021/12/05 04:09:36;;;;;;;1.67;1.40;;;3.90;98.20;;;;;;5054342;28;20458;-76
2021/12/05 04:12:04;;;;;;;1.67;1.40;;;3.90;98.20;;;;;;5039594;28;20486;-77
2021/12/05 04:14:37;;;;;;;1.70;1.40;;;3.80;98.20;;;;;;5055112;28;20536;-77
2021/12/05 04:17:06;;;;;;;1.67;1.40;;;3.80;98.20;;;;;;5041149;28;20492;-77
2021/12/05 04:19:34;;;;;;;1.63;1.40;;;3.70;98.20;;;;;;5055467;28;20462;-78
2021/12/05 04:22:01;;;;;;;1.70;1.50;;;3.70;98.20;;;;;;5049286;28;20529;-77
2021/12/05 04:24:28;;;;;;;1.60;1.40;;;3.70;98.20;;;;;;5061294;28;20839;-80
2021/12/05 04:26:55;;;;;;;1.60;1.33;;;3.60;98.20;;;;;;5048856;28;20477;-80
2021/12/05 04:29:22;;;;;;;1.60;1.40;;;3.60;98.20;;;;;;5055507;28;20546;-78
2021/12/05 04:31:51;;;;;;;1.70;1.60;;;3.60;98.20;;;;;;5055391;28;20572;-78
2021/12/05 04:34:18;;;;;;;1.70;1.40;;;3.60;98.20;;;;;;5061319;28;20479;-77
2021/12/05 04:36:46;;;;;;;1.70;1.50;;;3.50;98.20;;;;;;5057191;28;20483;-79
2021/12/05 04:39:14;;;;;;;1.60;1.40;;;3.50;98.20;;;;;;5064611;28;20461;-78
2021/12/05 04:41:43;;;;;;;1.67;1.50;;;3.50;98.20;;;;;;5059863;28;20489;-77
2021/12/05 04:44:10;;;;;;;1.67;1.50;;;3.50;98.20;;;;;;5051456;28;20475;-79
2021/12/05 04:46:38;;;;;;;1.67;1.40;;;3.50;98.20;;;;;;5050079;28;20574;-78
2021/12/05 04:49:08;;;;;;;1.70;1.50;;;3.40;98.20;;;;;;5059071;28;20466;-78
2021/12/05 04:51:38;;;;;;;1.70;1.50;;;3.40;98.20;;;;;;5047333;28;20513;-78
2021/12/05 04:54:06;;;;;;;1.70;1.40;;;3.40;98.20;;;;;;5046411;28;21145;-77
2021/12/05 04:56:36;;;;;;;1.70;1.40;;;3.40;98.20;;;;;;5046860;28;20529;-79
2021/12/05 04:59:11;;;;;;;1.70;1.50;;;3.30;98.20;;;;;;5058669;28;20459;-78
2021/12/05 05:01:38;;;;;;;1.60;1.30;;;3.30;98.20;;;;;;5039412;28;20543;-79
2021/12/05 05:04:15;;;;;;;1.63;1.40;;;3.30;98.20;;;;;;5053992;28;20879;-78
2021/12/05 05:06:42;;;;;;;1.70;1.50;;;3.30;98.20;;;;;;5053884;28;21385;-77
2021/12/05 05:09:08;;;;;;;1.70;1.50;;;3.20;98.20;;;;;;5056818;28;20480;-78
2021/12/05 05:11:37;;;;;;;1.70;1.50;;;3.20;98.20;;;;;;5056424;28;20485;-78
2021/12/05 05:14:04;;;;;;;1.70;1.60;;;3.20;98.20;;;;;;5055505;28;20479;-80
2021/12/05 05:16:31;;;;;;;1.60;1.40;;;3.20;98.20;;;;;;5058825;28;20956;-77
2021/12/05 05:19:00;;;;;;;1.70;1.50;;;3.10;98.20;;;;;;5051840;28;20494;-80
2021/12/05 05:21:37;;;;;;;1.63;1.50;;;3.10;98.20;;;;;;5055230;28;20497;-78
2021/12/05 05:44:04;;;;;;;1.70;1.50;;;3.00;98.20;;;;;;5010907;28;20486;-77
2021/12/05 05:46:50;;;;;;;1.70;1.50;;;3.00;98.20;;;;;;5016203;28;20557;-77
2021/12/05 05:49:20;;;;;;;1.63;1.40;;;3.00;98.20;;;;;;5045282;28;20538;-80
2021/12/05 05:51:48;;;;;;;1.67;1.40;;;3.00;98.20;;;;;;5049734;28;20473;-78
2021/12/05 05:54:18;;;;;;;1.70;1.60;;;3.10;98.20;;;;;;5052256;28;20482;-78
2021/12/05 05:56:46;;;;;;;4.43;4.03;;;3.10;98.20;;;;;;5042503;28;20486;-77
2021/12/05 05:59:19;;;;;;;1.70;1.50;;;3.10;98.20;;;;;;5053139;28;20490;-79
2021/12/05 06:03:18;;;;;;;1.67;1.40;;;3.10;98.20;;;;;;5050049;28;21040;-77
2021/12/05 06:04:45;;;;;;;1.70;1.60;;;3.20;98.20;;;;;;5058927;28;20477;-80
2021/12/05 06:07:14;;;;;;;1.70;1.53;;;3.20;98.20;;;;;;5042879;28;20491;-79
2021/12/05 06:09:43;;;;;;;1.70;1.40;;;3.20;98.20;;;;;;5055444;28;20472;-78
2021/12/05 06:12:10;;;;;;;1.70;1.40;;;3.20;98.20;;;;;;5051031;28;20562;-78
2021/12/05 06:14:37;;;;;;;1.63;1.40;;;3.30;98.20;;;;;;5056775;28;21245;-77
2021/12/05 06:17:04;;;;;;;1.70;1.57;;;3.30;98.20;;;;;;5038514;28;20510;-75
2021/12/05 06:19:31;;;;;;;1.70;1.50;;;3.40;98.20;;;;;;5059120;28;20981;-75
2021/12/05 06:21:58;;;;;;;1.70;1.40;;;3.40;98.20;;;;;;5037278;28;20500;-75
2021/12/05 06:24:26;;;;;;;1.67;1.40;;;3.50;98.20;;;;;;5051164;28;20481;-75
2021/12/05 06:26:54;;;;;;;1.60;1.50;;;3.50;98.20;;;;;;5046188;28;20574;-76
2021/12/05 06:29:22;;;;;;;1.63;1.40;;;3.50;98.20;;;;;;5053104;28;20483;-75
2021/12/05 06:32:00;;;;;;;1.60;1.40;;;3.60;98.20;;;;;;5038060;28;20485;-75
2021/12/05 06:37:31;;;;;;;1.63;1.50;;;3.70;98.20;;;;;;5046129;28;20475;-78
2021/12/05 06:42:59;;;;;;;1.70;1.40;;;3.80;98.20;;;;;;4998137;28;21036;-79
2021/12/05 06:48:08;;;;;;;1.67;1.50;;;3.90;98.20;;;;;;5015090;28;21116;-76
2021/12/05 06:50:35;;;;;;;1.70;1.50;;;3.90;98.20;;;;;;5053623;28;20465;-76
2021/12/05 06:53:03;;;;;;;1.67;1.50;;;3.90;98.20;;;;;;5024083;28;20566;-76
2021/12/05 06:55:31;;;;;;;1.67;1.40;;;4.00;98.20;;;;;;5045973;28;20526;-76
2021/12/05 06:57:59;;;;;;;1.63;1.40;;;4.00;98.20;;;;;;5034528;28;20577;-77
2021/12/05 07:00:29;;;;;;;1.70;1.50;;;4.00;98.20;;;;;;5051389;28;20498;-76
2021/12/05 07:02:56;;;;;;;1.70;1.50;;;4.10;98.20;;;;;;5023491;28;20570;-77
2021/12/05 07:08:05;;;;;;;1.67;1.40;;;4.10;98.20;;;;;;5027390;28;20888;-77
2021/12/05 07:10:39;;;;;;;1.67;1.40;;;4.20;98.20;;;;;;5055330;28;20544;-76
2021/12/05 07:15:59;;;;;;;1.70;1.50;;;4.30;98.20;;;;;;5043810;28;21030;-77
2021/12/05 07:21:12;;;;;;;1.60;1.40;;;4.30;98.20;;;;;;5039186;28;20497;-75
2021/12/05 07:23:48;;;;;;;1.60;1.40;;;4.40;98.20;;;;;;5048441;28;20573;-76
2021/12/05 07:26:21;;;;;;;1.70;1.60;;;4.40;98.20;;;;;;5034186;28;21137;-76
2021/12/05 07:42:38;;;;;;;1.67;1.40;;;4.50;98.20;;;;;;5033749;28;20481;-76
2021/12/05 07:45:08;;;;;;;1.70;1.60;;;4.60;98.20;;;;;;5051817;28;20497;-75
2021/12/05 07:47:38;;;;;;;1.70;1.50;;;4.60;98.20;;;;;;5042775;28;20569;-76
2021/12/05 07:50:08;;;;;;;1.60;1.40;;;4.60;98.20;;;;;;5052552;28;20974;-75
2021/12/05 07:52:40;;;;;;;1.63;1.30;;;4.60;98.20;;;;;;5039539;28;20482;-76
2021/12/05 07:55:14;;;;;;;1.70;1.57;;;4.70;98.20;;;;;;5041475;28;20608;-76
2021/12/05 07:57:57;;;;;;;1.70;1.40;;;4.70;98.20;;;;;;5038744;28;20477;-80
2021/12/05 08:00:32;;;;;;;1.63;1.37;;;4.70;98.20;;;;;;5051540;28;20483;-76
2021/12/05 08:16:48;;;;;;;1.60;1.33;;;4.80;98.20;;;;;;5044020;28;20843;-76
2021/12/05 08:19:15;;;;;;;1.60;1.40;;;4.80;98.20;;;;;;5049290;28;20523;-76
2021/12/05 08:21:43;;;;;;;1.60;1.40;;;4.90;98.20;;;;;;5041701;28;20600;-75
2021/12/05 08:24:10;;;;;;;1.60;1.37;;;4.90;98.20;;;;;;5051383;28;20890;-75
2021/12/05 08:26:37;;;;;;;1.60;1.37;;;4.90;98.20;;;;;;5038209;28;20500;-75
2021/12/05 08:29:09;;;;;;;1.60;1.30;;;4.90;98.20;;;;;;5042881;28;20463;-75
2021/12/05 08:31:57;;;;;;;1.60;1.40;;;4.90;98.20;;;;;;5032745;28;20490;-75
2021/12/05 08:34:43;;;;;;;1.60;1.40;;;4.90;98.20;;;;;;5047428;28;20568;-75
2021/12/05 08:43:03;;;;;;;1.60;1.30;;;4.90;98.20;;;;;;5041997;28;20473;-73
2021/12/05 08:46:13;;;;;;;1.60;1.40;;;4.90;98.20;;;;;;5046723;28;20466;-73
2021/12/05 09:24:59;;;;;;;1.60;1.30;;;5.10;98.20;;;;;;5031803;28;20951;-74
2021/12/05 09:30:41;;;;;;;1.70;1.40;;;5.10;98.20;;;;;;5025419;28;20916;-75
2021/12/05 09:39:28;;;;;;;1.60;1.30;;;5.20;98.20;;;;;;5052404;28;20756;-75
2021/12/05 10:01:57;;;;;;;1.60;1.40;;;5.10;98.20;;;;;;5028337;28;20852;-73
2021/12/05 10:07:24;;;;;;;1.63;1.27;;;5.10;98.20;;;;;;5039356;28;20531;-73
2021/12/05 10:10:07;;;;;;;1.63;1.30;;;5.10;98.20;;;;;;5042923;28;20457;-75
2021/12/05 10:13:00;;;;;;;1.60;1.20;;;5.10;98.20;;;;;;5042069;28;20895;-74
2021/12/05 10:15:47;;;;;;;1.60;1.30;;;5.20;98.20;;;;;;5034702;28;20491;-74
2021/12/05 10:27:08;;;;;;;1.70;1.40;;;5.30;98.20;;;;;;5032229;28;20534;-75
2021/12/05 10:35:42;;;;;;;1.63;1.40;;;5.40;98.20;;;;;;5039531;28;20993;-74
2021/12/05 10:38:14;;;;;;;1.70;1.37;;;5.50;98.20;;;;;;5045768;28;21028;-74
2021/12/05 10:40:47;;;;;;;1.67;1.40;;;5.50;98.20;;;;;;5037145;28;20962;-74
2021/12/05 10:43:17;;;;;;;1.67;1.40;;;5.60;98.20;;;;;;5033612;28;20482;-75
2021/12/05 10:45:48;;;;;;;1.67;1.40;;;5.60;98.20;;;;;;5037934;28;20466;-75
2021/12/05 10:48:25;;;;;;;1.60;1.40;;;5.60;98.20;;;;;;5041270;28;20879;-77
2021/12/05 10:50:54;;;;;;;1.60;1.30;;;5.70;98.20;;;;;;5028223;28;20478;-74
2021/12/05 10:53:38;;;;;;;1.60;1.40;;;5.80;98.20;;;;;;5036106;28;20481;-74
2021/12/05 10:56:12;;;;;;;1.70;1.33;;;5.80;98.20;;;;;;5026935;28;20491;-75
2021/12/05 10:58:43;;;;;;;1.60;1.40;;;5.90;98.20;;;;;;5056035;28;20989;-77
2021/12/05 11:03:39;;;;;;;1.60;1.30;;;6.00;98.20;;;;;;5022720;22;20496;-75
2021/12/05 11:06:26;;;;;;;1.60;1.30;;;6.10;98.20;;;;;;4977445;28;20493;-75
2021/12/05 11:08:56;;;;;;;1.60;1.30;;;6.10;98.20;;;;;;4995730;28;20480;-74
2021/12/05 11:11:24;;;;;;;1.70;1.40;;;6.10;98.20;;;;;;4977760;28;21014;-76
2021/12/05 11:13:51;;;;;;;1.60;1.30;;;6.10;98.20;;;;;;4990529;28;20560;-75
2021/12/05 11:16:40;;;;;;;1.60;1.30;;;6.20;98.20;;;;;;4974706;28;20914;-75
2021/12/05 11:19:16;;;;;;;1.60;1.30;;;6.20;98.20;;;;;;4978777;28;20468;-75
2021/12/05 11:21:51;;;;;;;1.67;1.40;;;6.20;98.20;;;;;;4980511;28;20541;-74
2021/12/05 11:24:23;;;;;;;3.50;2.90;;;6.30;98.20;;;;;;4982903;28;20956;-75
2021/12/05 11:27:22;;;;;;;1.67;1.30;;;6.30;98.20;;;;;;4972566;28;20961;-75
2021/12/05 11:30:10;;;;;;;1.67;1.30;;;6.30;98.20;;;;;;4980893;28;20461;-74
2021/12/05 11:32:40;;;;;;;1.63;1.30;;;6.30;98.20;;;;;;4967812;28;20521;-74
2021/12/05 11:35:26;;;;;;;1.60;1.20;;;6.40;98.20;;;;;;4984282;28;20521;-75
2021/12/05 11:37:56;;;;;;;1.60;1.30;;;6.40;98.20;;;;;;4970783;28;20576;-75
2021/12/05 11:40:25;;;;;;;1.70;1.40;;;6.40;98.20;;;;;;4988834;28;20461;-75
2021/12/05 11:42:56;;;;;;;1.70;1.43;;;6.40;98.20;;;;;;4969666;28;20489;-76
2021/12/05 11:45:23;;;;;;;1.60;1.30;;;6.30;98.20;;;;;;4986561;28;20464;-73
2021/12/05 11:47:53;;;;;;;1.60;1.27;;;6.30;98.20;;;;;;4969178;28;20994;-74
2021/12/05 11:50:31;;;;;;;1.60;1.20;;;6.30;98.20;;;;;;4987073;28;20503;-75
2021/12/05 11:52:58;;;;;;;1.70;1.30;;;6.30;98.20;;;;;;4968848;28;20911;-76
2021/12/05 11:55:29;;;;;;;1.60;1.30;;;6.30;98.20;;;;;;4987503;28;20579;-75
2021/12/05 11:57:56;;;;;;;1.60;1.23;;;6.30;98.20;;;;;;4985474;28;20479;-75
2021/12/05 12:00:25;;;;;;;1.60;1.30;;;6.40;98.20;;;;;;4984814;28;20465;-75
2021/12/05 12:02:53;;;;;;;1.63;1.30;;;6.40;98.20;;;;;;4988223;28;21109;-78
2021/12/05 12:05:27;;;;;;;1.60;1.20;;;6.40;98.20;;;;;;4984407;28;20969;-75
2021/12/05 12:08:00;;;;;;;1.60;1.30;;;6.40;98.20;;;;;;4967929;28;20490;-77
2021/12/05 12:10:31;;;;;;;1.67;1.30;;;6.50;98.20;;;;;;4990402;28;20501;-78
2021/12/05 12:13:01;;;;;;;1.60;1.20;;;6.50;98.20;;;;;;4974507;28;20584;-75
2021/12/05 12:15:30;;;;;;;1.67;1.30;;;6.60;98.20;;;;;;4986505;28;20532;-75
2021/12/05 12:18:06;;;;;;;1.63;1.30;;;6.70;98.20;;;;;;4977000;28;20576;-77
2021/12/05 12:20:38;;;;;;;1.60;1.30;;;6.80;98.20;;;;;;4987750;28;20464;-75
2021/12/05 12:23:05;;;;;;;1.60;1.20;;;6.80;98.20;;;;;;4971489;28;20826;-76
2021/12/05 12:25:36;;;;;;;1.60;1.30;;;6.90;98.20;;;;;;4985402;28;20496;-78
2021/12/05 12:28:04;;;;;;;1.60;1.20;;;7.00;98.20;;;;;;4969874;28;21072;-76
2021/12/05 12:30:34;;;;;;;1.63;1.30;;;7.10;98.20;;;;;;4987310;28;21033;-75
2021/12/05 12:33:06;;;;;;;1.60;1.20;;;7.20;98.20;;;;;;4985648;28;20484;-76
2021/12/05 12:35:35;;;;;;;1.60;1.20;;;7.20;98.20;;;;;;4989084;28;20521;-76
2021/12/05 12:38:07;;;;;;;1.60;1.23;;;7.20;98.20;;;;;;4963402;28;20482;-74
2021/12/05 12:40:42;;;;;;;1.60;1.27;;;7.20;98.20;;;;;;4985045;28;20491;-75
2021/12/05 12:43:11;;;;;;;1.60;1.27;;;7.20;98.20;;;;;;4964149;28;20564;-76
2021/12/05 12:45:42;;;;;;;1.67;1.30;;;7.20;98.20;;;;;;4988446;28;21013;-76
2021/12/05 12:48:15;;;;;;;1.60;1.20;;;7.20;98.20;;;;;;4970240;28;20481;-75
2021/12/05 12:50:51;;;;;;;1.60;1.20;;;7.20;98.20;;;;;;4987826;28;20970;-76
2021/12/05 12:53:23;;;;;;;1.60;1.20;;;7.20;98.20;;;;;;4975912;28;21002;-76
2021/12/05 12:55:55;;;;;;;1.60;1.20;;;7.20;98.20;;;;;;4973189;28;20485;-76
2021/12/05 12:58:42;;;;;;;1.60;1.30;;;7.20;98.20;;;;;;4998193;28;20469;-76
2021/12/05 13:01:20;;;;;;;1.70;1.37;;;7.10;98.20;;;;;;4974130;28;20492;-76
2021/12/05 13:04:28;;;;;;;1.60;1.30;;;7.10;98.20;;;;;;4981555;28;20464;-76
2021/12/05 13:10:05;;;;;;;1.60;1.20;;;7.00;98.20;;;;;;4989060;28;20569;-77
2021/12/05 13:12:34;;;;;;;1.60;1.40;;;6.90;98.20;;;;;;4975607;28;20504;-76
2021/12/05 13:15:06;;;;;;;1.60;1.30;;;6.90;98.20;;;;;;4987203;28;20518;-76
2021/12/05 13:17:41;;;;;;;1.60;1.20;;;6.90;98.20;;;;;;4974447;28;20564;-76
2021/12/05 13:20:10;;;;;;;1.60;1.20;;;7.00;98.20;;;;;;4984073;28;20555;-76
2021/12/05 13:23:00;;;;;;;1.60;1.30;;;7.00;98.20;;;;;;4972929;28;20485;-76
2021/12/05 13:25:28;;;;;;;1.60;1.20;;;7.00;98.20;;;;;;4983541;28;20504;-77
2021/12/05 13:27:57;;;;;;;1.60;1.30;;;7.00;98.20;;;;;;4993068;28;20481;-76
2021/12/05 13:30:32;;;;;;;1.60;1.30;;;7.10;98.20;;;;;;4988973;28;20469;-79
2021/12/05 13:33:16;;;;;;;1.67;1.40;;;7.10;98.20;;;;;;4991632;28;21204;-75
2021/12/05 13:35:44;;;;;;;1.60;1.30;;;7.10;98.20;;;;;;4984676;28;20496;-77
2021/12/05 13:38:35;;;;;;;1.60;1.30;;;7.10;98.20;;;;;;4976247;28;20484;-77
2021/12/05 13:41:14;;;;;;;1.60;1.20;;;7.20;98.20;;;;;;4976915;28;20457;-76
2021/12/05 13:43:42;;;;;;;1.60;1.20;;;7.20;98.20;;;;;;4980927;28;20694;-76
2021/12/05 13:46:32;;;;;;;1.60;1.30;;;7.30;98.20;;;;;;4974255;28;20515;-76
2021/12/05 13:48:59;;;;;;;1.60;1.30;;;7.30;98.20;;;;;;4980541;28;20473;-75
2021/12/05 13:53:59;;;;;;;1.60;1.30;;;7.30;98.20;;;;;;4983537;28;20891;-76
2021/12/05 13:56:28;;;;;;;1.60;1.27;;;7.30;98.20;;;;;;4969301;28;20489;-76
2021/12/05 13:58:59;;;;;;;1.60;1.20;;;7.30;98.20;;;;;;4983205;28;20462;-76
2021/12/05 14:01:30;;;;;;;1.60;1.20;;;7.30;98.20;;;;;;4970566;28;20489;-76
2021/12/05 14:04:10;;;;;;;1.60;1.27;;;7.30;98.20;;;;;;4973839;28;21363;-76
2021/12/05 14:06:52;;;;;;;1.60;1.30;;;7.30;98.20;;;;;;5032528;22;20562;-76
2021/12/05 14:09:24;;;;;;;1.60;1.30;;;7.30;98.20;;;;;;5039722;28;20462;-76
2021/12/05 14:11:56;;;;;;;1.70;1.30;;;7.30;98.20;;;;;;5034931;28;20569;-77
2021/12/05 14:14:27;;;;;;;1.60;1.20;;;7.30;98.20;;;;;;5038498;28;20947;-77
2021/12/05 14:16:57;;;;;;;1.70;1.40;;;7.40;98.20;;;;;;5036080;28;20551;-78
2021/12/05 14:19:28;;;;;;;1.60;1.20;;;7.40;98.20;;;;;;5044655;28;20487;-78
2021/12/05 14:21:58;;;;;;;1.60;1.20;;;7.40;98.20;;;;;;5027871;28;20486;-77
2021/12/05 14:24:30;;;;;;;1.60;1.20;;;7.50;98.20;;;;;;5043643;28;20497;-75
2021/12/05 14:27:01;;;;;;;1.60;1.27;;;7.50;98.20;;;;;;5031804;28;20766;-75
2021/12/05 14:29:29;;;;;;;1.60;1.20;;;7.40;98.20;;;;;;5042544;28;20462;-78
2021/12/05 14:32:00;;;;;;;1.63;1.30;;;7.40;98.20;;;;;;5032954;28;20848;-77
2021/12/05 14:34:29;;;;;;;1.60;1.20;;;7.40;98.20;;;;;;5043516;28;20466;-77
2021/12/05 14:36:59;;;;;;;1.60;1.30;;;7.40;98.20;;;;;;5034478;28;20505;-77
2021/12/05 14:39:30;;;;;;;1.63;1.33;;;7.40;98.20;;;;;;5042795;28;21007;-77
2021/12/05 14:42:00;;;;;;;1.60;1.20;;;7.40;98.20;;;;;;5028996;28;20538;-77
2021/12/05 14:44:29;;;;;;;1.60;1.20;;;7.40;98.20;;;;;;5040899;28;20464;-77
2021/12/05 14:47:02;;;;;;;1.60;1.20;;;7.40;98.20;;;;;;5033494;28;20573;-78
2021/12/05 14:49:31;;;;;;;1.63;1.30;;;7.40;98.20;;;;;;5047190;28;20494;-78
2021/12/05 14:52:01;;;;;;;1.60;1.27;;;7.40;98.20;;;;;;5034668;28;20895;-77
2021/12/05 14:54:33;;;;;;;1.60;1.30;;;7.40;98.20;;;;;;5044632;28;20462;-77
2021/12/05 14:57:05;;;;;;;1.60;1.27;;;7.40;98.20;;;;;;5027291;28;20576;-77
2021/12/05 14:59:32;;;;;;;1.63;1.30;;;7.30;98.20;;;;;;5049075;28;20482;-78
2021/12/05 15:02:00;;;;;;;1.60;1.30;;;7.30;98.20;;;;;;5033033;28;21013;-77
2021/12/05 15:04:30;;;;;;;1.60;1.20;;;7.20;98.20;;;;;;5041989;28;20871;-77
2021/12/05 15:06:58;;;;;;;1.60;1.20;;;7.20;98.20;;;;;;5025428;28;20494;-77
2021/12/05 15:09:29;;;;;;;1.60;1.30;;;7.20;98.20;;;;;;5040333;28;20454;-76
2021/12/05 15:12:01;;;;;;;1.60;1.30;;;7.10;98.20;;;;;;5021667;28;20550;-77
2021/12/05 15:14:30;;;;;;;1.60;1.20;;;7.10;98.20;;;;;;5036763;28;20462;-78
2021/12/05 15:17:04;;;;;;;1.60;1.30;;;7.10;98.20;;;;;;5031802;28;21420;-76
2021/12/05 15:19:32;;;;;;;1.60;1.30;;;7.00;98.20;;;;;;5042514;28;21039;-76
2021/12/05 15:21:59;;;;;;;1.60;1.30;;;7.00;98.20;;;;;;5015738;28;21072;-77
2021/12/05 15:24:30;;;;;;;1.60;1.30;;;7.00;98.20;;;;;;5028593;28;20555;-76
2021/12/05 15:27:01;;;;;;;1.60;1.30;;;7.00;98.20;;;;;;5026202;28;20486;-77
2021/12/05 15:29:30;;;;;;;1.60;1.30;;;7.00;98.20;;;;;;5037473;28;20896;-77
2021/12/05 15:31:58;;;;;;;1.60;1.30;;;7.00;98.20;;;;;;5028942;28;20478;-76
2021/12/05 15:34:34;;;;;;;1.60;1.20;;;6.90;98.20;;;;;;5038528;28;20466;-76
2021/12/05 15:37:09;;;;;;;1.60;1.20;;;6.90;98.20;;;;;;5027438;28;20564;-75
2021/12/05 15:39:37;;;;;;;1.63;1.30;;;6.90;98.20;;;;;;5040174;28;20961;-76
2021/12/05 15:42:16;;;;;;;1.60;1.30;;;6.90;98.20;;;;;;5020740;28;20479;-76
2021/12/05 15:44:43;;;;;;;1.60;1.20;;;6.90;98.20;;;;;;5036977;28;20894;-75
2021/12/05 15:47:14;;;;;;;1.60;1.30;;;6.80;98.20;;;;;;5021586;28;20553;-78
2021/12/05 15:49:55;;;;;;;1.60;1.20;;;6.80;98.20;;;;;;5040320;28;20545;-77
2021/12/05 15:52:25;;;;;;;1.60;1.30;;;6.80;98.20;;;;;;5022154;28;20485;-76
2021/12/05 15:54:52;;;;;;;1.60;1.30;;;6.80;98.20;;;;;;5035439;28;20467;-76
2021/12/05 15:57:30;;;;;;;1.60;1.30;;;6.80;98.20;;;;;;5029143;28;20482;-76
2021/12/05 16:00:05;;;;;;;1.60;1.30;;;6.80;98.20;;;;;;5040913;28;20495;-80
2021/12/05 16:02:33;;;;;;;1.60;1.20;;;6.70;98.20;;;;;;5014793;28;21157;-77
2021/12/05 16:05:00;;;;;;;1.60;1.20;;;6.70;98.20;;;;;;5038616;28;20462;-76
2021/12/05 16:07:30;;;;;;;1.63;1.30;;;6.70;98.20;;;;;;5032432;28;20693;-78
2021/12/05 16:10:21;;;;;;;1.60;1.20;;;6.70;98.20;;;;;;5044686;28;20461;-75
2021/12/05 16:12:51;;;;;;;1.60;1.30;;;6.60;98.20;;;;;;5025815;28;21164;-78
2021/12/05 16:15:20;;;;;;;1.60;1.30;;;6.60;98.20;;;;;;5042141;28;20481;-76
2021/12/05 16:17:59;;;;;;;1.60;1.20;;;6.60;98.20;;;;;;5014693;28;20478;-77
2021/12/05 16:20:29;;;;;;;1.60;1.30;;;6.60;98.20;;;;;;5044923;28;20841;-76
2021/12/05 16:23:09;;;;;;;1.63;1.30;;;6.50;98.20;;;;;;5031308;28;20617;-76
2021/12/05 16:25:39;;;;;;;1.60;1.27;;;6.50;98.20;;;;;;5042292;28;21120;-76
2021/12/05 16:28:12;;;;;;;1.60;1.30;;;6.50;98.20;;;;;;5015276;28;20472;-75
2021/12/05 16:30:43;;;;;;;1.60;1.33;;;6.40;98.20;;;;;;5041839;28;20846;-77
2021/12/05 16:33:13;;;;;;;1.60;1.30;;;6.40;98.20;;;;;;5012434;28;20474;-76
2021/12/05 16:35:46;;;;;;;1.60;1.30;;;6.40;98.20;;;;;;5042112;28;20486;-76
2021/12/05 16:38:26;;;;;;;1.60;1.30;;;6.40;98.20;;;;;;5015947;28;20478;-77
2021/12/05 16:41:09;;;;;;;1.60;1.30;;;6.40;98.20;;;;;;5034017;28;20462;-78
2021/12/05 16:43:39;;;;;;;1.67;1.30;;;6.40;98.20;;;;;;5041741;28;20462;-77
2021/12/05 16:46:11;;;;;;;1.60;1.30;;;6.30;98.20;;;;;;5033413;28;20538;-77
2021/12/05 16:48:40;;;;;;;1.60;1.30;;;6.30;98.20;;;;;;5038146;28;20528;-75
2021/12/05 16:51:15;;;;;;;1.70;1.30;;;6.20;98.20;;;;;;5028235;28;20890;-75
2021/12/05 16:53:46;;;;;;;1.60;1.30;;;6.20;98.20;;;;;;5039489;28;20473;-74
2021/12/05 16:56:18;;;;;;;1.60;1.30;;;6.20;98.20;;;;;;5026475;28;20601;-74
2021/12/05 16:58:46;;;;;;;1.60;1.30;;;6.20;98.20;;;;;;5041146;28;20672;-73
2021/12/05 17:01:20;;;;;;;1.60;1.30;;;6.20;98.20;;;;;;5026452;28;20924;-75
2021/12/05 17:03:48;;;;;;;1.60;1.30;;;6.10;98.20;;;;;;5030514;28;20524;-77
2021/12/05 17:06:15;;;;;;;1.60;1.30;;;6.10;98.20;;;;;;5027635;28;20569;-75
2021/12/05 17:08:45;;;;;;;1.60;1.20;;;6.10;98.20;;;;;;5043309;28;20462;-76
2021/12/05 17:11:17;;;;;;;1.60;1.30;;;6.10;98.20;;;;;;5029684;28;20484;-75
2021/12/05 17:13:48;;;;;;;1.63;1.30;;;6.00;98.20;;;;;;5031516;28;20918;-75
2021/12/05 17:16:19;;;;;;;1.67;1.40;;;6.00;98.20;;;;;;5025774;28;20532;-74
2021/12/05 17:18:48;;;;;;;1.63;1.37;;;5.90;98.20;;;;;;5026470;28;20465;-72
2021/12/05 17:21:17;;;;;;;1.60;1.30;;;5.90;98.20;;;;;;5026809;28;20518;-73
2021/12/05 17:23:47;;;;;;;1.60;1.30;;;5.90;98.20;;;;;;5029212;28;20494;-74
2021/12/05 17:26:20;;;;;;;1.60;1.30;;;5.90;98.20;;;;;;5025051;28;20499;-74
2021/12/05 17:28:53;;;;;;;1.60;1.30;;;5.90;98.20;;;;;;5032038;28;20528;-73
2021/12/05 17:31:26;;;;;;;1.60;1.37;;;5.90;98.20;;;;;;5025408;28;20482;-75